Airfield :
LOGIN :

Register | Disclaimer

   EN    FR    IT 

 










Legend :    VFR   Marginal VFR   IFR   Intensive IFR   Very Intensive IFR
Visi :
Ceiling :
>= 8 km
>= 3000ft
5 to 8 km
1000 to 3000 ft
1500m to 5 km
500 to 1000 ft
800 to 1500m
200 to 500 ft
< 800m
< 200 ft
Symbols :   Thunderstorms  Fog  Heavy snow  Heavy precipitations  Wind > 20 kt
SIGMETs :     Misc.  Thunderstorms  Icing  Turbulence  Mountain Waves  Volcanic Ashes






- Airport Elevation : 38 ft
- IATA code : TRE


EGPU - Tiree

CURRENT METAR :
  • 231720Z AUTO 18030KT 6000 RA BKN008/// BKN015/// 12/11 Q0996

EXPIRED METARs :
  • 231650Z 18030KT 7000 RA BKN009 BKN016 12/11 Q0996
  • 231620Z 18028KT 8000 -RA BKN009 BKN015 12/11 Q0996
  • 231550Z 18028KT 6000 RA BKN009 BKN015 12/11 Q0997
  • 231520Z 18027KT 3700 RA SCT009 BKN015 11/10 Q0997

Expired Forecast.



MET'MAP, your aeronautical weather chart ! - Copyright ORBIFLY December 2007 - Disclaimer

ORBIFLY MET'MAP TEAM :

Programming & Development : Alexandra Zaïnal
Concept & Development : Baudouin d'Aumeries
Co-Development & Prog : Marc-Olivier Méhu
Technical & hardware support : Manuel Goepfert

Contact : metmap@orbifly.com




SOURCES & CREDITS :

   NOAA